sensor_id;sensor_type;location;lat;lon;timestamp;P1;durP1;ratioP1;P2;durP2;ratioP2
12038;SDS011;6080;48.818;9.526;2023-05-07T03:02:58;15.30;;;14.50;;
12038;SDS011;6080;48.818;9.526;2023-05-07T03:05:23;14.07;;;13.33;;
12038;SDS011;6080;48.818;9.526;2023-05-07T03:07:49;13.50;;;12.80;;
12038;SDS011;6080;48.818;9.526;2023-05-07T03:10:15;13.43;;;12.63;;
12038;SDS011;6080;48.818;9.526;2023-05-07T03:12:41;10.67;;;9.60;;
12038;SDS011;6080;48.818;9.526;2023-05-07T03:15:07;8.93;;;8.30;;
12038;SDS011;6080;48.818;9.526;2023-05-07T03:17:33;9.70;;;9.10;;
12038;SDS011;6080;48.818;9.526;2023-05-07T03:19:59;9.10;;;8.43;;
12038;SDS011;6080;48.818;9.526;2023-05-07T03:22:25;9.77;;;8.23;;
12038;SDS011;6080;48.818;9.526;2023-05-07T03:24:50;9.90;;;9.23;;
12038;SDS011;6080;48.818;9.526;2023-05-07T03:27:16;9.43;;;8.93;;
12038;SDS011;6080;48.818;9.526;2023-05-07T03:29:42;6.30;;;5.70;;
12038;SDS011;6080;48.818;9.526;2023-05-07T03:32:07;6.33;;;5.80;;
12038;SDS011;6080;48.818;9.526;2023-05-07T03:34:33;7.27;;;6.63;;
12038;SDS011;6080;48.818;9.526;2023-05-07T03:36:59;9.47;;;8.67;;
12038;SDS011;6080;48.818;9.526;2023-05-07T03:39:25;33.43;;;31.47;;
12038;SDS011;6080;48.818;9.526;2023-05-07T03:41:51;24.57;;;23.23;;
12038;SDS011;6080;48.818;9.526;2023-05-07T03:44:17;20.73;;;19.53;;
12038;SDS011;6080;48.818;9.526;2023-05-07T03:46:43;24.70;;;23.43;;
12038;SDS011;6080;48.818;9.526;2023-05-07T03:49:09;49.17;;;46.60;;
12038;SDS011;6080;48.818;9.526;2023-05-07T03:51:34;61.87;;;58.03;;
12038;SDS011;6080;48.818;9.526;2023-05-07T03:54:01;49.83;;;47.33;;
12038;SDS011;6080;48.818;9.526;2023-05-07T03:56:26;54.80;;;51.87;;
12038;SDS011;6080;48.818;9.526;2023-05-07T03:58:53;48.23;;;45.77;;
12038;SDS011;6080;48.818;9.526;2023-05-07T04:01:19;44.77;;;42.37;;
12038;SDS011;6080;48.818;9.526;2023-05-07T04:03:45;48.50;;;46.00;;
12038;SDS011;6080;48.818;9.526;2023-05-07T04:06:10;43.63;;;41.37;;
12038;SDS011;6080;48.818;9.526;2023-05-07T04:08:37;37.30;;;35.37;;
12038;SDS011;6080;48.818;9.526;2023-05-07T04:11:03;29.30;;;27.70;;
12038;SDS011;6080;48.818;9.526;2023-05-07T04:13:29;23.03;;;21.80;;
12038;SDS011;6080;48.818;9.526;2023-05-07T04:15:55;64.07;;;60.83;;
12038;SDS011;6080;48.818;9.526;2023-05-07T04:18:21;10.40;;;9.70;;
12038;SDS011;6080;48.818;9.526;2023-05-07T04:20:47;10.40;;;9.80;;
12038;SDS011;6080;48.818;9.526;2023-05-07T04:23:14;31.87;;;29.77;;
12038;SDS011;6080;48.818;9.526;2023-05-07T04:25:40;50.57;;;47.83;;
12038;SDS011;6080;48.818;9.526;2023-05-07T04:28:06;13.73;;;12.93;;
12038;SDS011;6080;48.818;9.526;2023-05-07T04:30:32;9.73;;;8.87;;
12038;SDS011;6080;48.818;9.526;2023-05-07T04:32:58;9.07;;;8.37;;
12038;SDS011;6080;48.818;9.526;2023-05-07T04:35:23;7.77;;;7.23;;
12038;SDS011;6080;48.818;9.526;2023-05-07T04:37:49;10.27;;;9.57;;
12038;SDS011;6080;48.818;9.526;2023-05-07T04:40:15;13.90;;;13.07;;
12038;SDS011;6080;48.818;9.526;2023-05-07T04:42:41;20.53;;;19.17;;
12038;SDS011;6080;48.818;9.526;2023-05-07T04:45:07;32.17;;;30.13;;
12038;SDS011;6080;48.818;9.526;2023-05-07T04:47:33;12.20;;;11.37;;
12038;SDS011;6080;48.818;9.526;2023-05-07T04:49:59;9.13;;;8.63;;
12038;SDS011;6080;48.818;9.526;2023-05-07T04:52:25;11.47;;;10.30;;
12038;SDS011;6080;48.818;9.526;2023-05-07T04:54:51;6.47;;;6.07;;
12038;SDS011;6080;48.818;9.526;2023-05-07T04:57:17;10.37;;;9.87;;
12038;SDS011;6080;48.818;9.526;2023-05-07T04:59:43;9.70;;;9.00;;
12038;SDS011;6080;48.818;9.526;2023-05-07T05:02:10;12.97;;;11.97;;
12038;SDS011;6080;48.818;9.526;2023-05-07T05:04:36;19.07;;;18.00;;
12038;SDS011;6080;48.818;9.526;2023-05-07T05:07:02;44.13;;;41.67;;
12038;SDS011;6080;48.818;9.526;2023-05-07T05:09:31;40.53;;;38.43;;
12038;SDS011;6080;48.818;9.526;2023-05-07T05:11:56;12.43;;;11.73;;
12038;SDS011;6080;48.818;9.526;2023-05-07T05:14:22;13.27;;;12.43;;
12038;SDS011;6080;48.818;9.526;2023-05-07T05:16:49;13.33;;;12.53;;
12038;SDS011;6080;48.818;9.526;2023-05-07T05:19:14;14.27;;;13.57;;
12038;SDS011;6080;48.818;9.526;2023-05-07T05:21:40;15.43;;;14.73;;
12038;SDS011;6080;48.818;9.526;2023-05-07T05:24:06;16.03;;;15.13;;
12038;SDS011;6080;48.818;9.526;2023-05-07T05:26:32;15.80;;;15.00;;
12038;SDS011;6080;48.818;9.526;2023-05-07T05:28:57;14.83;;;14.03;;
12038;SDS011;6080;48.818;9.526;2023-05-07T05:31:23;13.27;;;12.47;;
12038;SDS011;6080;48.818;9.526;2023-05-07T05:33:49;12.23;;;11.63;;
12038;SDS011;6080;48.818;9.526;2023-05-07T05:36:15;11.73;;;10.83;;
12038;SDS011;6080;48.818;9.526;2023-05-07T05:38:41;9.53;;;9.00;;
12038;SDS011;6080;48.818;9.526;2023-05-07T05:41:06;14.73;;;13.90;;
12038;SDS011;6080;48.818;9.526;2023-05-07T05:43:32;62.53;;;59.50;;
12038;SDS011;6080;48.818;9.526;2023-05-07T05:45:58;17.17;;;16.10;;
12038;SDS011;6080;48.818;9.526;2023-05-07T05:48:25;37.13;;;35.30;;
12038;SDS011;6080;48.818;9.526;2023-05-07T05:50:51;18.13;;;17.07;;
12038;SDS011;6080;48.818;9.526;2023-05-07T05:53:17;11.70;;;11.10;;
12038;SDS011;6080;48.818;9.526;2023-05-07T05:55:42;11.60;;;10.90;;
12038;SDS011;6080;48.818;9.526;2023-05-07T05:58:09;75.05;;;71.30;;
12038;SDS011;6080;48.818;9.526;2023-05-07T06:00:34;21.00;;;20.00;;
12038;SDS011;6080;48.818;9.526;2023-05-07T06:03:00;6.50;;;6.20;;
12038;SDS011;6080;48.818;9.526;2023-05-07T06:05:26;10.05;;;9.48;;
12038;SDS011;6080;48.818;9.526;2023-05-07T06:07:52;10.75;;;10.23;;
12038;SDS011;6080;48.818;9.526;2023-05-07T06:10:17;14.27;;;13.40;;
12038;SDS011;6080;48.818;9.526;2023-05-07T06:12:43;26.33;;;25.08;;
12038;SDS011;6080;48.818;9.526;2023-05-07T06:15:09;17.95;;;17.02;;
12038;SDS011;6080;48.818;9.526;2023-05-07T06:17:35;9.65;;;9.23;;
12038;SDS011;6080;48.818;9.526;2023-05-07T06:20:01;10.63;;;10.13;;
12038;SDS011;6080;48.818;9.526;2023-05-07T06:22:27;16.95;;;16.15;;
12038;SDS011;6080;48.818;9.526;2023-05-07T06:24:53;8.50;;;8.02;;
12038;SDS011;6080;48.818;9.526;2023-05-07T06:27:19;5.28;;;4.97;;
12038;SDS011;6080;48.818;9.526;2023-05-07T06:29:45;6.15;;;5.75;;
12038;SDS011;6080;48.818;9.526;2023-05-07T06:32:13;8.70;;;8.30;;
12038;SDS011;6080;48.818;9.526;2023-05-07T06:34:39;8.98;;;8.50;;
12038;SDS011;6080;48.818;9.526;2023-05-07T06:37:06;11.07;;;10.43;;
12038;SDS011;6080;48.818;9.526;2023-05-07T06:39:32;11.45;;;10.85;;
12038;SDS011;6080;48.818;9.526;2023-05-07T06:41:59;9.07;;;8.50;;
12038;SDS011;6080;48.818;9.526;2023-05-07T06:44:26;4.95;;;4.65;;
12038;SDS011;6080;48.818;9.526;2023-05-07T06:46:52;12.52;;;11.82;;
12038;SDS011;6080;48.818;9.526;2023-05-07T06:49:17;21.20;;;20.20;;
12038;SDS011;6080;48.818;9.526;2023-05-07T06:51:43;22.88;;;21.58;;
12038;SDS011;6080;48.818;9.526;2023-05-07T06:54:09;27.35;;;25.95;;
12038;SDS011;6080;48.818;9.526;2023-05-07T06:56:34;26.30;;;25.00;;
12038;SDS011;6080;48.818;9.526;2023-05-07T06:59:01;24.15;;;23.05;;
12038;SDS011;6080;48.818;9.526;2023-05-07T07:01:27;24.05;;;22.83;;
12038;SDS011;6080;48.818;9.526;2023-05-07T07:03:53;15.75;;;15.02;;
12038;SDS011;6080;48.818;9.526;2023-05-07T07:06:19;14.55;;;13.75;;
12038;SDS011;6080;48.818;9.526;2023-05-07T07:08:45;12.43;;;11.82;;
12038;SDS011;6080;48.818;9.526;2023-05-07T07:11:11;8.70;;;8.30;;
12038;SDS011;6080;48.818;9.526;2023-05-07T07:13:37;14.77;;;13.77;;
12038;SDS011;6080;48.818;9.526;2023-05-07T07:16:03;27.63;;;26.15;;
12038;SDS011;6080;48.818;9.526;2023-05-07T07:18:29;14.18;;;13.48;;
12038;SDS011;6080;48.818;9.526;2023-05-07T07:20:54;4.65;;;4.22;;
12038;SDS011;6080;48.818;9.526;2023-05-07T07:23:20;5.88;;;5.57;;
12038;SDS011;6080;48.818;9.526;2023-05-07T07:25:46;6.72;;;6.43;;
12038;SDS011;6080;48.818;9.526;2023-05-07T07:28:12;7.25;;;6.85;;
12038;SDS011;6080;48.818;9.526;2023-05-07T07:30:38;7.45;;;6.97;;
12038;SDS011;6080;48.818;9.526;2023-05-07T07:33:04;3.92;;;3.78;;
12038;SDS011;6080;48.818;9.526;2023-05-07T07:35:30;4.25;;;4.03;;
12038;SDS011;6080;48.818;9.526;2023-05-07T07:37:56;4.30;;;4.10;;
12038;SDS011;6080;48.818;9.526;2023-05-07T07:40:22;4.32;;;4.13;;
12038;SDS011;6080;48.818;9.526;2023-05-07T07:42:48;4.28;;;3.90;;
12038;SDS011;6080;48.818;9.526;2023-05-07T07:45:14;4.97;;;4.68;;
12038;SDS011;6080;48.818;9.526;2023-05-07T07:47:40;4.50;;;4.18;;
12038;SDS011;6080;48.818;9.526;2023-05-07T07:50:06;4.05;;;3.95;;
12038;SDS011;6080;48.818;9.526;2023-05-07T07:52:32;4.10;;;3.90;;
12038;SDS011;6080;48.818;9.526;2023-05-07T07:54:59;5.68;;;5.30;;
12038;SDS011;6080;48.818;9.526;2023-05-07T07:57:24;4.88;;;4.50;;
12038;SDS011;6080;48.818;9.526;2023-05-07T07:59:50;4.25;;;4.05;;
12038;SDS011;6080;48.818;9.526;2023-05-07T08:02:16;4.50;;;4.30;;
12038;SDS011;6080;48.818;9.526;2023-05-07T08:04:43;4.43;;;4.22;;
12038;SDS011;6080;48.818;9.526;2023-05-07T08:07:12;6.05;;;5.70;;
12038;SDS011;6080;48.818;9.526;2023-05-07T08:09:38;67.97;;;64.65;;
12038;SDS011;6080;48.818;9.526;2023-05-07T08:12:04;48.03;;;45.63;;
12038;SDS011;6080;48.818;9.526;2023-05-07T08:14:31;27.45;;;26.13;;
12038;SDS011;6080;48.818;9.526;2023-05-07T08:16:57;22.48;;;21.20;;
12038;SDS011;6080;48.818;9.526;2023-05-07T08:19:22;29.45;;;28.05;;
12038;SDS011;6080;48.818;9.526;2023-05-07T08:21:48;39.58;;;37.67;;
12038;SDS011;6080;48.818;9.526;2023-05-07T08:24:14;17.63;;;16.73;;
12038;SDS011;6080;48.818;9.526;2023-05-07T08:26:40;8.40;;;7.90;;
12038;SDS011;6080;48.818;9.526;2023-05-07T08:29:07;7.88;;;7.38;;
12038;SDS011;6080;48.818;9.526;2023-05-07T08:31:33;10.70;;;10.10;;
12038;SDS011;6080;48.818;9.526;2023-05-07T08:33:58;9.00;;;8.50;;
12038;SDS011;6080;48.818;9.526;2023-05-07T08:36:25;18.48;;;17.63;;
12038;SDS011;6080;48.818;9.526;2023-05-07T08:38:51;55.38;;;52.58;;
12038;SDS011;6080;48.818;9.526;2023-05-07T08:41:17;80.03;;;76.18;;
12038;SDS011;6080;48.818;9.526;2023-05-07T08:43:45;98.05;;;93.25;;
12038;SDS011;6080;48.818;9.526;2023-05-07T08:46:17;61.72;;;58.75;;
12038;SDS011;6080;48.818;9.526;2023-05-07T08:48:50;45.10;;;42.92;;
12038;SDS011;6080;48.818;9.526;2023-05-07T08:51:16;75.53;;;71.82;;
12038;SDS011;6080;48.818;9.526;2023-05-07T08:53:44;52.88;;;50.22;;
12038;SDS011;6080;48.818;9.526;2023-05-07T08:56:10;78.72;;;75.00;;
12038;SDS011;6080;48.818;9.526;2023-05-07T08:58:37;88.10;;;83.72;;
12038;SDS011;6080;48.818;9.526;2023-05-07T09:01:13;83.30;;;79.20;;
12038;SDS011;6080;48.818;9.526;2023-05-07T09:03:41;64.68;;;61.25;;
12038;SDS011;6080;48.818;9.526;2023-05-07T09:06:09;63.72;;;60.47;;
12038;SDS011;6080;48.818;9.526;2023-05-07T09:08:35;86.15;;;82.00;;
12038;SDS011;6080;48.818;9.526;2023-05-07T09:11:01;69.53;;;66.22;;
12038;SDS011;6080;48.818;9.526;2023-05-07T09:13:27;63.65;;;60.60;;
12038;SDS011;6080;48.818;9.526;2023-05-07T09:15:53;47.95;;;45.63;;
12038;SDS011;6080;48.818;9.526;2023-05-07T09:18:20;48.83;;;46.42;;
12038;SDS011;6080;48.818;9.526;2023-05-07T09:20:46;52.72;;;49.92;;
12038;SDS011;6080;48.818;9.526;2023-05-07T09:23:12;52.17;;;49.53;;
12038;SDS011;6080;48.818;9.526;2023-05-07T09:25:37;25.83;;;24.55;;
12038;SDS011;6080;48.818;9.526;2023-05-07T09:28:03;13.55;;;12.95;;
12038;SDS011;6080;48.818;9.526;2023-05-07T09:30:31;4.82;;;4.63;;
12038;SDS011;6080;48.818;9.526;2023-05-07T09:32:58;5.97;;;5.68;;
12038;SDS011;6080;48.818;9.526;2023-05-07T09:35:25;6.20;;;5.90;;
12038;SDS011;6080;48.818;9.526;2023-05-07T09:37:55;5.32;;;5.05;;
12038;SDS011;6080;48.818;9.526;2023-05-07T09:40:26;5.28;;;4.90;;
12038;SDS011;6080;48.818;9.526;2023-05-07T09:42:55;6.45;;;6.15;;
12038;SDS011;6080;48.818;9.526;2023-05-07T09:45:24;5.47;;;5.28;;
12038;SDS011;6080;48.818;9.526;2023-05-07T09:47:53;5.72;;;5.28;;
12038;SDS011;6080;48.818;9.526;2023-05-07T09:50:23;6.05;;;5.75;;
12038;SDS011;6080;48.818;9.526;2023-05-07T09:52:53;4.65;;;4.32;;
12038;SDS011;6080;48.818;9.526;2023-05-07T09:55:20;4.05;;;3.85;;
12038;SDS011;6080;48.818;9.526;2023-05-07T09:57:48;4.57;;;4.38;;
12038;SDS011;6080;48.818;9.526;2023-05-07T10:00:17;10.35;;;7.72;;
12038;SDS011;6080;48.818;9.526;2023-05-07T10:02:50;6.00;;;5.72;;
12038;SDS011;6080;48.818;9.526;2023-05-07T10:05:20;6.50;;;6.03;;
12038;SDS011;6080;48.818;9.526;2023-05-07T10:07:48;6.72;;;6.32;;
12038;SDS011;6080;48.818;9.526;2023-05-07T10:10:15;5.13;;;4.82;;
12038;SDS011;6080;48.818;9.526;2023-05-07T10:12:41;3.60;;;3.50;;
12038;SDS011;6080;48.818;9.526;2023-05-07T10:15:11;4.35;;;4.00;;
12038;SDS011;6080;48.818;9.526;2023-05-07T10:17:38;6.10;;;5.82;;
12038;SDS011;6080;48.818;9.526;2023-05-07T10:20:05;12.02;;;11.32;;
12038;SDS011;6080;48.818;9.526;2023-05-07T10:22:33;9.60;;;9.10;;
12038;SDS011;6080;48.818;9.526;2023-05-07T10:25:21;6.10;;;5.50;;
12038;SDS011;6080;48.818;9.526;2023-05-07T10:27:50;3.70;;;3.42;;
12038;SDS011;6080;48.818;9.526;2023-05-07T10:32:57;3.65;;;3.33;;
12038;SDS011;6080;48.818;9.526;2023-05-07T10:35:31;3.47;;;3.38;;
12038;SDS011;6080;48.818;9.526;2023-05-07T10:38:03;3.70;;;3.50;;
12038;SDS011;6080;48.818;9.526;2023-05-07T10:40:30;3.85;;;3.40;;
12038;SDS011;6080;48.818;9.526;2023-05-07T10:42:57;3.63;;;3.33;;
12038;SDS011;6080;48.818;9.526;2023-05-07T10:45:27;5.22;;;4.85;;
12038;SDS011;6080;48.818;9.526;2023-05-07T10:50:42;21.02;;;20.00;;
12038;SDS011;6080;48.818;9.526;2023-05-07T10:55:46;6.32;;;5.93;;
12038;SDS011;6080;48.818;9.526;2023-05-07T10:58:24;7.93;;;7.53;;
12038;SDS011;6080;48.818;9.526;2023-05-07T11:01:02;9.15;;;8.65;;
12038;SDS011;6080;48.818;9.526;2023-05-07T11:03:28;9.48;;;8.90;;
12038;SDS011;6080;48.818;9.526;2023-05-07T11:06:13;12.95;;;12.23;;
12038;SDS011;6080;48.818;9.526;2023-05-07T11:11:18;29.48;;;28.08;;
12038;SDS011;6080;48.818;9.526;2023-05-07T11:13:47;25.08;;;23.83;;
12038;SDS011;6080;48.818;9.526;2023-05-07T11:16:24;25.35;;;24.00;;
12038;SDS011;6080;48.818;9.526;2023-05-07T11:18:53;35.58;;;33.80;;
12038;SDS011;6080;48.818;9.526;2023-05-07T11:21:33;34.05;;;32.42;;
12038;SDS011;6080;48.818;9.526;2023-05-07T11:24:04;25.95;;;24.65;;
12038;SDS011;6080;48.818;9.526;2023-05-07T11:26:41;17.75;;;16.67;;
12038;SDS011;6080;48.818;9.526;2023-05-07T11:29:12;22.15;;;20.90;;
12038;SDS011;6080;48.818;9.526;2023-05-07T11:31:39;22.35;;;21.25;;
12038;SDS011;6080;48.818;9.526;2023-05-07T11:34:05;36.08;;;34.17;;
12038;SDS011;6080;48.818;9.526;2023-05-07T11:36:32;35.80;;;34.08;;
12038;SDS011;6080;48.818;9.526;2023-05-07T11:38:58;35.25;;;33.53;;
12038;SDS011;6080;48.818;9.526;2023-05-07T11:41:34;27.67;;;26.38;;
12038;SDS011;6080;48.818;9.526;2023-05-07T11:44:01;19.05;;;18.05;;
12038;SDS011;6080;48.818;9.526;2023-05-07T11:46:28;8.07;;;7.40;;
12038;SDS011;6080;48.818;9.526;2023-05-07T11:48:54;7.32;;;6.63;;
12038;SDS011;6080;48.818;9.526;2023-05-07T11:51:21;7.93;;;7.53;;
12038;SDS011;6080;48.818;9.526;2023-05-07T11:53:49;7.20;;;6.82;;
12038;SDS011;6080;48.818;9.526;2023-05-07T11:56:16;6.88;;;6.57;;
12038;SDS011;6080;48.818;9.526;2023-05-07T11:58:44;7.10;;;6.57;;
12038;SDS011;6080;48.818;9.526;2023-05-07T12:01:12;6.10;;;5.70;;
12038;SDS011;6080;48.818;9.526;2023-05-07T12:03:42;4.95;;;4.68;;
12038;SDS011;6080;48.818;9.526;2023-05-07T12:06:10;4.18;;;3.90;;
12038;SDS011;6080;48.818;9.526;2023-05-07T12:08:38;3.85;;;3.75;;
12038;SDS011;6080;48.818;9.526;2023-05-07T12:11:09;4.05;;;3.83;;
12038;SDS011;6080;48.818;9.526;2023-05-07T12:13:37;4.25;;;3.95;;
12038;SDS011;6080;48.818;9.526;2023-05-07T12:16:03;4.05;;;3.75;;
12038;SDS011;6080;48.818;9.526;2023-05-07T12:18:30;3.22;;;3.08;;
12038;SDS011;6080;48.818;9.526;2023-05-07T12:20:56;3.30;;;3.10;;
12038;SDS011;6080;48.818;9.526;2023-05-07T12:23:24;3.85;;;3.65;;
12038;SDS011;6080;48.818;9.526;2023-05-07T12:25:50;3.38;;;3.25;;
12038;SDS011;6080;48.818;9.526;2023-05-07T12:28:16;3.85;;;3.65;;
12038;SDS011;6080;48.818;9.526;2023-05-07T12:30:43;3.78;;;3.58;;
12038;SDS011;6080;48.818;9.526;2023-05-07T12:33:10;3.92;;;3.60;;
12038;SDS011;6080;48.818;9.526;2023-05-07T12:35:40;4.05;;;3.85;;
12038;SDS011;6080;48.818;9.526;2023-05-07T12:38:11;3.30;;;3.10;;
12038;SDS011;6080;48.818;9.526;2023-05-07T12:40:42;5.03;;;4.72;;
12038;SDS011;6080;48.818;9.526;2023-05-07T12:43:16;9.07;;;8.48;;
12038;SDS011;6080;48.818;9.526;2023-05-07T12:45:43;8.38;;;7.97;;
12038;SDS011;6080;48.818;9.526;2023-05-07T12:48:09;8.35;;;7.85;;
12038;SDS011;6080;48.818;9.526;2023-05-07T12:50:36;6.93;;;6.63;;
12038;SDS011;6080;48.818;9.526;2023-05-07T12:53:05;8.02;;;7.53;;
12038;SDS011;6080;48.818;9.526;2023-05-07T12:55:40;6.00;;;5.50;;
12038;SDS011;6080;48.818;9.526;2023-05-07T12:58:07;5.60;;;5.07;;
12038;SDS011;6080;48.818;9.526;2023-05-07T13:00:39;9.40;;;5.80;;
12038;SDS011;6080;48.818;9.526;2023-05-07T13:03:04;9.18;;;8.70;;
12038;SDS011;6080;48.818;9.526;2023-05-07T13:05:31;18.45;;;17.52;;
12038;SDS011;6080;48.818;9.526;2023-05-07T13:07:57;30.40;;;28.98;;
12038;SDS011;6080;48.818;9.526;2023-05-07T13:10:24;36.50;;;34.10;;
12038;SDS011;6080;48.818;9.526;2023-05-07T13:12:50;29.88;;;28.20;;
12038;SDS011;6080;48.818;9.526;2023-05-07T13:15:16;30.05;;;28.55;;
12038;SDS011;6080;48.818;9.526;2023-05-07T13:17:42;33.33;;;31.73;;
12038;SDS011;6080;48.818;9.526;2023-05-07T13:20:11;60.50;;;57.50;;
12038;SDS011;6080;48.818;9.526;2023-05-07T13:22:38;55.90;;;53.03;;
12038;SDS011;6080;48.818;9.526;2023-05-07T13:25:05;41.08;;;38.85;;
12038;SDS011;6080;48.818;9.526;2023-05-07T13:27:31;31.20;;;29.52;;
12038;SDS011;6080;48.818;9.526;2023-05-07T13:29:57;19.27;;;18.13;;
12038;SDS011;6080;48.818;9.526;2023-05-07T13:32:22;11.32;;;10.82;;
12038;SDS011;6080;48.818;9.526;2023-05-07T13:34:48;13.30;;;12.23;;
12038;SDS011;6080;48.818;9.526;2023-05-07T13:37:14;15.48;;;14.27;;
12038;SDS011;6080;48.818;9.526;2023-05-07T13:39:40;14.35;;;13.30;;
12038;SDS011;6080;48.818;9.526;2023-05-07T13:42:06;28.83;;;27.25;;
12038;SDS011;6080;48.818;9.526;2023-05-07T13:44:32;7.22;;;6.57;;
12038;SDS011;6080;48.818;9.526;2023-05-07T13:46:58;9.55;;;8.75;;
12038;SDS011;6080;48.818;9.526;2023-05-07T13:49:24;7.72;;;7.22;;
12038;SDS011;6080;48.818;9.526;2023-05-07T13:51:50;9.27;;;8.43;;
12038;SDS011;6080;48.818;9.526;2023-05-07T13:54:16;9.48;;;8.68;;
12038;SDS011;6080;48.818;9.526;2023-05-07T13:56:41;10.70;;;10.02;;
12038;SDS011;6080;48.818;9.526;2023-05-07T13:59:07;11.10;;;10.40;;
12038;SDS011;6080;48.818;9.526;2023-05-07T14:01:33;11.52;;;10.93;;
12038;SDS011;6080;48.818;9.526;2023-05-07T14:03:59;11.30;;;10.70;;
12038;SDS011;6080;48.818;9.526;2023-05-07T14:06:25;9.18;;;8.77;;
12038;SDS011;6080;48.818;9.526;2023-05-07T14:08:51;10.10;;;9.50;;
12038;SDS011;6080;48.818;9.526;2023-05-07T14:11:17;10.05;;;9.55;;
12038;SDS011;6080;48.818;9.526;2023-05-07T14:13:43;10.38;;;9.88;;
12038;SDS011;6080;48.818;9.526;2023-05-07T14:16:08;11.27;;;10.57;;
12038;SDS011;6080;48.818;9.526;2023-05-07T14:18:34;12.80;;;12.00;;
12038;SDS011;6080;48.818;9.526;2023-05-07T14:21:02;9.07;;;8.57;;
12038;SDS011;6080;48.818;9.526;2023-05-07T14:23:31;7.75;;;7.25;;
12038;SDS011;6080;48.818;9.526;2023-05-07T14:25:57;10.05;;;7.30;;
12038;SDS011;6080;48.818;9.526;2023-05-07T14:28:23;8.10;;;7.70;;
12038;SDS011;6080;48.818;9.526;2023-05-07T14:30:49;7.47;;;7.10;;
12038;SDS011;6080;48.818;9.526;2023-05-07T14:33:15;5.93;;;5.63;;
12038;SDS011;6080;48.818;9.526;2023-05-07T14:35:40;7.80;;;7.25;;
12038;SDS011;6080;48.818;9.526;2023-05-07T14:38:06;16.85;;;15.18;;
12038;SDS011;6080;48.818;9.526;2023-05-07T14:40:32;13.30;;;12.40;;
12038;SDS011;6080;48.818;9.526;2023-05-07T14:42:58;93.95;;;89.20;;
12038;SDS011;6080;48.818;9.526;2023-05-07T14:45:23;61.63;;;56.88;;
12038;SDS011;6080;48.818;9.526;2023-05-07T14:47:49;15.43;;;14.50;;
12038;SDS011;6080;48.818;9.526;2023-05-07T14:50:15;26.45;;;25.05;;
12038;SDS011;6080;48.818;9.526;2023-05-07T14:52:41;26.50;;;24.67;;
12038;SDS011;6080;48.818;9.526;2023-05-07T14:55:07;22.10;;;20.92;;
12038;SDS011;6080;48.818;9.526;2023-05-07T14:57:33;26.80;;;25.45;;
12038;SDS011;6080;48.818;9.526;2023-05-07T15:00:00;30.42;;;28.92;;
12038;SDS011;6080;48.818;9.526;2023-05-07T15:02:29;30.88;;;29.35;;
12038;SDS011;6080;48.818;9.526;2023-05-07T15:04:55;28.73;;;27.23;;
12038;SDS011;6080;48.818;9.526;2023-05-07T15:07:21;24.25;;;22.98;;
12038;SDS011;6080;48.818;9.526;2023-05-07T15:09:47;35.53;;;33.85;;
12038;SDS011;6080;48.818;9.526;2023-05-07T15:12:13;17.30;;;16.40;;
12038;SDS011;6080;48.818;9.526;2023-05-07T15:14:39;30.17;;;28.75;;
12038;SDS011;6080;48.818;9.526;2023-05-07T15:17:05;124.00;;;117.75;;
12038;SDS011;6080;48.818;9.526;2023-05-07T15:19:31;185.27;;;175.95;;
12038;SDS011;6080;48.818;9.526;2023-05-07T15:21:57;181.13;;;172.10;;
12038;SDS011;6080;48.818;9.526;2023-05-07T15:24:23;201.45;;;191.20;;
12038;SDS011;6080;48.818;9.526;2023-05-07T15:26:51;203.43;;;193.15;;
12038;SDS011;6080;48.818;9.526;2023-05-07T15:29:17;196.38;;;186.57;;
12038;SDS011;6080;48.818;9.526;2023-05-07T15:31:43;141.25;;;134.45;;
12038;SDS011;6080;48.818;9.526;2023-05-07T15:34:08;148.40;;;141.15;;
12038;SDS011;6080;48.818;9.526;2023-05-07T15:36:34;174.25;;;165.50;;
12038;SDS011;6080;48.818;9.526;2023-05-07T15:39:00;168.27;;;159.63;;
12038;SDS011;6080;48.818;9.526;2023-05-07T15:41:27;117.13;;;111.25;;
12038;SDS011;6080;48.818;9.526;2023-05-07T15:43:53;28.52;;;27.08;;
12038;SDS011;6080;48.818;9.526;2023-05-07T15:46:20;67.72;;;64.13;;
12038;SDS011;6080;48.818;9.526;2023-05-07T15:48:48;58.88;;;55.92;;
12038;SDS011;6080;48.818;9.526;2023-05-07T15:51:14;23.50;;;22.30;;
12038;SDS011;6080;48.818;9.526;2023-05-07T15:53:40;96.78;;;91.80;;
12038;SDS011;6080;48.818;9.526;2023-05-07T15:56:06;55.35;;;52.53;;
12038;SDS011;6080;48.818;9.526;2023-05-07T15:58:32;28.98;;;27.02;;
12038;SDS011;6080;48.818;9.526;2023-05-07T16:00:58;78.00;;;73.55;;
12038;SDS011;6080;48.818;9.526;2023-05-07T16:03:25;63.20;;;59.67;;
12038;SDS011;6080;48.818;9.526;2023-05-07T16:05:51;71.23;;;67.33;;
12038;SDS011;6080;48.818;9.526;2023-05-07T16:08:18;49.77;;;46.90;;
12038;SDS011;6080;48.818;9.526;2023-05-07T16:10:43;77.90;;;73.65;;
12038;SDS011;6080;48.818;9.526;2023-05-07T16:13:09;59.87;;;56.90;;
12038;SDS011;6080;48.818;9.526;2023-05-07T16:15:35;92.53;;;87.73;;
12038;SDS011;6080;48.818;9.526;2023-05-07T16:18:01;82.70;;;78.40;;
12038;SDS011;6080;48.818;9.526;2023-05-07T16:20:27;80.33;;;76.07;;
12038;SDS011;6080;48.818;9.526;2023-05-07T16:22:54;65.70;;;62.10;;
12038;SDS011;6080;48.818;9.526;2023-05-07T16:25:20;37.77;;;35.50;;
12038;SDS011;6080;48.818;9.526;2023-05-07T16:27:46;19.10;;;17.53;;
12038;SDS011;6080;48.818;9.526;2023-05-07T16:30:12;17.63;;;16.60;;
12038;SDS011;6080;48.818;9.526;2023-05-07T16:32:38;16.20;;;15.10;;
12038;SDS011;6080;48.818;9.526;2023-05-07T16:35:04;15.13;;;14.00;;
12038;SDS011;6080;48.818;9.526;2023-05-07T16:37:31;17.30;;;16.10;;
12038;SDS011;6080;48.818;9.526;2023-05-07T16:40:00;14.07;;;13.27;;
12038;SDS011;6080;48.818;9.526;2023-05-07T16:42:32;12.80;;;12.07;;
12038;SDS011;6080;48.818;9.526;2023-05-07T16:44:58;46.93;;;44.33;;
12038;SDS011;6080;48.818;9.526;2023-05-07T16:47:25;74.03;;;70.03;;
12038;SDS011;6080;48.818;9.526;2023-05-07T16:49:50;58.63;;;55.53;;
12038;SDS011;6080;48.818;9.526;2023-05-07T16:52:16;26.83;;;25.47;;
12038;SDS011;6080;48.818;9.526;2023-05-07T16:54:42;72.37;;;68.70;;
12038;SDS011;6080;48.818;9.526;2023-05-07T16:57:08;45.67;;;43.00;;
12038;SDS011;6080;48.818;9.526;2023-05-07T16:59:34;36.40;;;34.33;;
12038;SDS011;6080;48.818;9.526;2023-05-07T17:02:00;35.77;;;33.83;;
12038;SDS011;6080;48.818;9.526;2023-05-07T17:04:25;45.90;;;43.33;;
12038;SDS011;6080;48.818;9.526;2023-05-07T17:06:52;39.00;;;37.00;;
12038;SDS011;6080;48.818;9.526;2023-05-07T17:09:18;33.73;;;31.83;;
12038;SDS011;6080;48.818;9.526;2023-05-07T17:11:44;26.40;;;25.00;;
12038;SDS011;6080;48.818;9.526;2023-05-07T17:14:09;50.07;;;47.37;;
12038;SDS011;6080;48.818;9.526;2023-05-07T17:16:35;41.20;;;38.33;;
12038;SDS011;6080;48.818;9.526;2023-05-07T17:19:01;19.30;;;17.97;;
12038;SDS011;6080;48.818;9.526;2023-05-07T17:21:27;27.80;;;26.20;;
12038;SDS011;6080;48.818;9.526;2023-05-07T17:23:53;37.43;;;35.53;;
12038;SDS011;6080;48.818;9.526;2023-05-07T17:26:18;42.10;;;40.03;;
12038;SDS011;6080;48.818;9.526;2023-05-07T17:28:45;10.77;;;10.17;;
12038;SDS011;6080;48.818;9.526;2023-05-07T17:31:11;14.37;;;13.67;;
12038;SDS011;6080;48.818;9.526;2023-05-07T17:33:36;8.73;;;8.00;;
12038;SDS011;6080;48.818;9.526;2023-05-07T17:36:02;9.33;;;8.50;;
12038;SDS011;6080;48.818;9.526;2023-05-07T17:38:29;7.70;;;7.30;;
12038;SDS011;6080;48.818;9.526;2023-05-07T17:40:56;7.47;;;6.87;;
12038;SDS011;6080;48.818;9.526;2023-05-07T17:43:23;8.63;;;8.13;;
12038;SDS011;6080;48.818;9.526;2023-05-07T17:45:49;37.23;;;35.23;;
12038;SDS011;6080;48.818;9.526;2023-05-07T17:48:15;28.13;;;26.47;;
12038;SDS011;6080;48.818;9.526;2023-05-07T17:50:41;35.50;;;33.63;;
12038;SDS011;6080;48.818;9.526;2023-05-07T17:53:09;40.70;;;38.63;;